sensor_id;sensor_type;location;lat;lon;timestamp;P1;durP1;ratioP1;P2;durP2;ratioP2
33154;SDS011;19511;42.682;23.332;2023-07-13T00:02:00;9.77;;;3.90;;
33154;SDS011;19511;42.682;23.332;2023-07-13T00:04:27;5.78;;;3.03;;
33154;SDS011;19511;42.682;23.332;2023-07-13T00:06:53;7.30;;;3.10;;
33154;SDS011;19511;42.682;23.332;2023-07-13T00:09:22;4.35;;;3.10;;
33154;SDS011;19511;42.682;23.332;2023-07-13T00:11:52;8.32;;;3.28;;
33154;SDS011;19511;42.682;23.332;2023-07-13T00:14:19;6.13;;;3.08;;
33154;SDS011;19511;42.682;23.332;2023-07-13T00:16:45;6.22;;;3.47;;
33154;SDS011;19511;42.682;23.332;2023-07-13T00:19:11;8.38;;;3.28;;
33154;SDS011;19511;42.682;23.332;2023-07-13T00:21:38;8.85;;;3.63;;
33154;SDS011;19511;42.682;23.332;2023-07-13T00:24:05;7.85;;;3.65;;
33154;SDS011;19511;42.682;23.332;2023-07-13T00:26:32;13.95;;;3.17;;
33154;SDS011;19511;42.682;23.332;2023-07-13T00:28:58;8.55;;;3.78;;
33154;SDS011;19511;42.682;23.332;2023-07-13T00:31:24;12.40;;;3.42;;
33154;SDS011;19511;42.682;23.332;2023-07-13T00:33:49;9.95;;;3.30;;
33154;SDS011;19511;42.682;23.332;2023-07-13T00:36:15;7.65;;;3.80;;
33154;SDS011;19511;42.682;23.332;2023-07-13T00:38:41;10.82;;;3.88;;
33154;SDS011;19511;42.682;23.332;2023-07-13T00:41:06;8.43;;;4.40;;
33154;SDS011;19511;42.682;23.332;2023-07-13T00:43:32;10.10;;;3.85;;
33154;SDS011;19511;42.682;23.332;2023-07-13T00:48:27;9.13;;;3.47;;
33154;SDS011;19511;42.682;23.332;2023-07-13T00:50:56;6.28;;;3.72;;
33154;SDS011;19511;42.682;23.332;2023-07-13T00:53:26;9.90;;;5.07;;
33154;SDS011;19511;42.682;23.332;2023-07-13T00:55:53;12.70;;;3.88;;
33154;SDS011;19511;42.682;23.332;2023-07-13T00:58:21;9.80;;;4.53;;
33154;SDS011;19511;42.682;23.332;2023-07-13T01:00:48;7.18;;;3.47;;
33154;SDS011;19511;42.682;23.332;2023-07-13T01:03:14;7.90;;;3.60;;
33154;SDS011;19511;42.682;23.332;2023-07-13T01:05:40;9.23;;;4.35;;
33154;SDS011;19511;42.682;23.332;2023-07-13T01:08:06;11.00;;;4.22;;
33154;SDS011;19511;42.682;23.332;2023-07-13T01:10:31;6.35;;;3.70;;
33154;SDS011;19511;42.682;23.332;2023-07-13T01:13:04;11.13;;;4.93;;
33154;SDS011;19511;42.682;23.332;2023-07-13T01:17:59;10.75;;;5.20;;
33154;SDS011;19511;42.682;23.332;2023-07-13T01:20:25;8.80;;;4.25;;
33154;SDS011;19511;42.682;23.332;2023-07-13T01:22:51;8.93;;;4.93;;
33154;SDS011;19511;42.682;23.332;2023-07-13T01:25:20;6.90;;;4.60;;
33154;SDS011;19511;42.682;23.332;2023-07-13T01:27:46;9.77;;;5.07;;
33154;SDS011;19511;42.682;23.332;2023-07-13T01:30:11;8.65;;;4.20;;
33154;SDS011;19511;42.682;23.332;2023-07-13T01:32:41;8.80;;;4.47;;
33154;SDS011;19511;42.682;23.332;2023-07-13T01:35:08;10.80;;;5.18;;
33154;SDS011;19511;42.682;23.332;2023-07-13T01:37:37;10.02;;;4.15;;
33154;SDS011;19511;42.682;23.332;2023-07-13T01:40:04;5.90;;;4.03;;
33154;SDS011;19511;42.682;23.332;2023-07-13T01:42:30;11.32;;;4.20;;
33154;SDS011;19511;42.682;23.332;2023-07-13T01:44:56;10.20;;;5.03;;
33154;SDS011;19511;42.682;23.332;2023-07-13T01:47:25;9.27;;;4.05;;
33154;SDS011;19511;42.682;23.332;2023-07-13T01:49:51;12.07;;;4.68;;
33154;SDS011;19511;42.682;23.332;2023-07-13T01:52:17;12.65;;;5.00;;
33154;SDS011;19511;42.682;23.332;2023-07-13T01:54:43;10.27;;;5.10;;
33154;SDS011;19511;42.682;23.332;2023-07-13T01:57:14;10.80;;;5.18;;
33154;SDS011;19511;42.682;23.332;2023-07-13T01:59:42;19.33;;;5.85;;
33154;SDS011;19511;42.682;23.332;2023-07-13T02:02:11;8.75;;;4.38;;
33154;SDS011;19511;42.682;23.332;2023-07-13T02:04:40;8.20;;;4.82;;
33154;SDS011;19511;42.682;23.332;2023-07-13T02:07:11;8.55;;;5.32;;
33154;SDS011;19511;42.682;23.332;2023-07-13T02:09:40;10.55;;;4.95;;
33154;SDS011;19511;42.682;23.332;2023-07-13T02:12:07;12.52;;;5.25;;
33154;SDS011;19511;42.682;23.332;2023-07-13T02:14:33;10.13;;;4.80;;
33154;SDS011;19511;42.682;23.332;2023-07-13T02:16:58;11.32;;;4.72;;
33154;SDS011;19511;42.682;23.332;2023-07-13T02:19:28;13.55;;;6.13;;
33154;SDS011;19511;42.682;23.332;2023-07-13T02:21:57;11.80;;;5.13;;
33154;SDS011;19511;42.682;23.332;2023-07-13T02:24:23;10.93;;;5.22;;
33154;SDS011;19511;42.682;23.332;2023-07-13T02:26:52;9.63;;;5.03;;
33154;SDS011;19511;42.682;23.332;2023-07-13T02:29:21;12.15;;;5.25;;
33154;SDS011;19511;42.682;23.332;2023-07-13T02:31:46;9.30;;;4.72;;
33154;SDS011;19511;42.682;23.332;2023-07-13T02:34:12;7.70;;;4.70;;
33154;SDS011;19511;42.682;23.332;2023-07-13T02:36:37;8.35;;;4.72;;
33154;SDS011;19511;42.682;23.332;2023-07-13T02:39:03;12.15;;;4.88;;
33154;SDS011;19511;42.682;23.332;2023-07-13T02:41:30;9.88;;;4.82;;
33154;SDS011;19511;42.682;23.332;2023-07-13T02:43:57;15.63;;;4.43;;
33154;SDS011;19511;42.682;23.332;2023-07-13T02:46:29;9.40;;;4.80;;
33154;SDS011;19511;42.682;23.332;2023-07-13T02:48:58;7.47;;;4.45;;
33154;SDS011;19511;42.682;23.332;2023-07-13T02:51:24;14.27;;;4.85;;
33154;SDS011;19511;42.682;23.332;2023-07-13T02:53:49;10.95;;;5.18;;
33154;SDS011;19511;42.682;23.332;2023-07-13T02:56:15;10.85;;;4.18;;
33154;SDS011;19511;42.682;23.332;2023-07-13T02:58:40;13.45;;;5.03;;
33154;SDS011;19511;42.682;23.332;2023-07-13T03:01:08;10.57;;;5.50;;
33154;SDS011;19511;42.682;23.332;2023-07-13T03:03:34;10.25;;;4.40;;
33154;SDS011;19511;42.682;23.332;2023-07-13T03:06:07;11.52;;;4.30;;
33154;SDS011;19511;42.682;23.332;2023-07-13T03:08:33;13.80;;;5.05;;
33154;SDS011;19511;42.682;23.332;2023-07-13T03:11:06;10.57;;;4.60;;
33154;SDS011;19511;42.682;23.332;2023-07-13T03:13:36;8.10;;;4.25;;
33154;SDS011;19511;42.682;23.332;2023-07-13T03:16:02;9.00;;;5.25;;
33154;SDS011;19511;42.682;23.332;2023-07-13T03:18:28;11.70;;;4.90;;
33154;SDS011;19511;42.682;23.332;2023-07-13T03:20:58;10.07;;;4.78;;
33154;SDS011;19511;42.682;23.332;2023-07-13T03:23:27;7.65;;;4.35;;
33154;SDS011;19511;42.682;23.332;2023-07-13T03:26:06;12.57;;;5.60;;
33154;SDS011;19511;42.682;23.332;2023-07-13T03:28:43;9.13;;;4.70;;
33154;SDS011;19511;42.682;23.332;2023-07-13T03:31:10;13.82;;;5.72;;
33154;SDS011;19511;42.682;23.332;2023-07-13T03:33:40;9.77;;;4.75;;
33154;SDS011;19511;42.682;23.332;2023-07-13T03:36:07;12.50;;;4.57;;
33154;SDS011;19511;42.682;23.332;2023-07-13T03:38:34;13.55;;;6.00;;
33154;SDS011;19511;42.682;23.332;2023-07-13T03:41:00;11.25;;;5.97;;
33154;SDS011;19511;42.682;23.332;2023-07-13T03:43:26;8.82;;;4.80;;
33154;SDS011;19511;42.682;23.332;2023-07-13T03:45:51;8.15;;;5.38;;
33154;SDS011;19511;42.682;23.332;2023-07-13T03:48:19;12.55;;;5.82;;
33154;SDS011;19511;42.682;23.332;2023-07-13T03:50:46;12.52;;;5.25;;
33154;SDS011;19511;42.682;23.332;2023-07-13T03:53:12;18.63;;;7.00;;
33154;SDS011;19511;42.682;23.332;2023-07-13T03:55:37;13.20;;;5.47;;
33154;SDS011;19511;42.682;23.332;2023-07-13T04:00:57;9.85;;;5.65;;
33154;SDS011;19511;42.682;23.332;2023-07-13T04:03:24;10.75;;;6.07;;
33154;SDS011;19511;42.682;23.332;2023-07-13T04:05:50;13.70;;;6.47;;
33154;SDS011;19511;42.682;23.332;2023-07-13T04:08:15;7.57;;;5.35;;
33154;SDS011;19511;42.682;23.332;2023-07-13T04:10:42;11.02;;;5.20;;
33154;SDS011;19511;42.682;23.332;2023-07-13T04:13:08;9.80;;;5.65;;
33154;SDS011;19511;42.682;23.332;2023-07-13T04:15:33;9.23;;;5.53;;
33154;SDS011;19511;42.682;23.332;2023-07-13T04:17:58;10.15;;;5.65;;
33154;SDS011;19511;42.682;23.332;2023-07-13T04:20:24;15.32;;;5.72;;
33154;SDS011;19511;42.682;23.332;2023-07-13T04:22:51;11.27;;;5.95;;
33154;SDS011;19511;42.682;23.332;2023-07-13T04:25:22;14.55;;;6.18;;
33154;SDS011;19511;42.682;23.332;2023-07-13T04:27:47;12.63;;;5.55;;
33154;SDS011;19511;42.682;23.332;2023-07-13T04:30:13;11.07;;;5.05;;
33154;SDS011;19511;42.682;23.332;2023-07-13T04:32:38;19.25;;;5.47;;
33154;SDS011;19511;42.682;23.332;2023-07-13T04:35:04;7.60;;;4.85;;
33154;SDS011;19511;42.682;23.332;2023-07-13T04:37:29;11.98;;;6.30;;
33154;SDS011;19511;42.682;23.332;2023-07-13T04:39:55;11.45;;;5.47;;
33154;SDS011;19511;42.682;23.332;2023-07-13T04:42:20;11.88;;;4.80;;
33154;SDS011;19511;42.682;23.332;2023-07-13T04:44:50;10.90;;;5.53;;
33154;SDS011;19511;42.682;23.332;2023-07-13T04:47:16;13.93;;;6.15;;
33154;SDS011;19511;42.682;23.332;2023-07-13T04:49:43;14.15;;;6.22;;
33154;SDS011;19511;42.682;23.332;2023-07-13T04:52:09;10.75;;;5.93;;
33154;SDS011;19511;42.682;23.332;2023-07-13T04:54:35;12.18;;;5.78;;
33154;SDS011;19511;42.682;23.332;2023-07-13T04:57:02;13.60;;;5.97;;
33154;SDS011;19511;42.682;23.332;2023-07-13T04:59:29;14.48;;;6.22;;
33154;SDS011;19511;42.682;23.332;2023-07-13T05:01:55;13.65;;;6.32;;
33154;SDS011;19511;42.682;23.332;2023-07-13T05:04:20;11.45;;;6.05;;
33154;SDS011;19511;42.682;23.332;2023-07-13T05:06:46;12.30;;;6.45;;
33154;SDS011;19511;42.682;23.332;2023-07-13T05:09:12;10.93;;;6.88;;
33154;SDS011;19511;42.682;23.332;2023-07-13T05:11:37;12.30;;;6.72;;
33154;SDS011;19511;42.682;23.332;2023-07-13T05:14:03;17.38;;;8.02;;
33154;SDS011;19511;42.682;23.332;2023-07-13T05:19:00;11.02;;;6.70;;
33154;SDS011;19511;42.682;23.332;2023-07-13T05:21:27;17.50;;;6.88;;
33154;SDS011;19511;42.682;23.332;2023-07-13T05:23:56;10.85;;;6.63;;
33154;SDS011;19511;42.682;23.332;2023-07-13T05:26:31;11.65;;;6.88;;
33154;SDS011;19511;42.682;23.332;2023-07-13T05:29:02;21.00;;;8.35;;
33154;SDS011;19511;42.682;23.332;2023-07-13T05:31:34;20.92;;;7.72;;
33154;SDS011;19511;42.682;23.332;2023-07-13T05:34:04;20.95;;;7.05;;
33154;SDS011;19511;42.682;23.332;2023-07-13T05:36:30;13.40;;;6.60;;
33154;SDS011;19511;42.682;23.332;2023-07-13T05:41:44;13.85;;;6.53;;
33154;SDS011;19511;42.682;23.332;2023-07-13T05:44:13;16.75;;;6.68;;
33154;SDS011;19511;42.682;23.332;2023-07-13T05:46:50;15.45;;;6.28;;
33154;SDS011;19511;42.682;23.332;2023-07-13T05:49:19;13.15;;;6.97;;
33154;SDS011;19511;42.682;23.332;2023-07-13T05:51:50;12.73;;;6.25;;
33154;SDS011;19511;42.682;23.332;2023-07-13T05:54:18;14.05;;;7.18;;
33154;SDS011;19511;42.682;23.332;2023-07-13T05:56:44;11.18;;;6.75;;
33154;SDS011;19511;42.682;23.332;2023-07-13T05:59:10;17.33;;;6.72;;
33154;SDS011;19511;42.682;23.332;2023-07-13T06:01:44;18.40;;;6.65;;
33154;SDS011;19511;42.682;23.332;2023-07-13T06:04:13;12.05;;;6.68;;
33154;SDS011;19511;42.682;23.332;2023-07-13T06:06:39;12.23;;;6.18;;
33154;SDS011;19511;42.682;23.332;2023-07-13T06:09:06;14.60;;;6.15;;
33154;SDS011;19511;42.682;23.332;2023-07-13T06:11:32;17.58;;;6.65;;
33154;SDS011;19511;42.682;23.332;2023-07-13T06:14:00;12.35;;;6.07;;
33154;SDS011;19511;42.682;23.332;2023-07-13T06:16:29;9.20;;;5.47;;
33154;SDS011;19511;42.682;23.332;2023-07-13T06:18:55;12.38;;;6.13;;
33154;SDS011;19511;42.682;23.332;2023-07-13T06:21:21;13.07;;;6.53;;
33154;SDS011;19511;42.682;23.332;2023-07-13T06:23:49;9.07;;;5.97;;
33154;SDS011;19511;42.682;23.332;2023-07-13T06:26:16;14.35;;;7.15;;
33154;SDS011;19511;42.682;23.332;2023-07-13T06:28:43;8.02;;;5.18;;
33154;SDS011;19511;42.682;23.332;2023-07-13T06:31:09;10.65;;;5.88;;
33154;SDS011;19511;42.682;23.332;2023-07-13T06:33:41;10.25;;;5.60;;
33154;SDS011;19511;42.682;23.332;2023-07-13T06:36:11;11.35;;;5.60;;
33154;SDS011;19511;42.682;23.332;2023-07-13T06:38:43;13.40;;;5.90;;
33154;SDS011;19511;42.682;23.332;2023-07-13T06:41:08;11.32;;;5.63;;
33154;SDS011;19511;42.682;23.332;2023-07-13T06:43:38;9.80;;;5.95;;
33154;SDS011;19511;42.682;23.332;2023-07-13T06:46:05;15.65;;;6.38;;
33154;SDS011;19511;42.682;23.332;2023-07-13T06:48:30;21.15;;;6.18;;
33154;SDS011;19511;42.682;23.332;2023-07-13T06:50:57;10.55;;;5.50;;
33154;SDS011;19511;42.682;23.332;2023-07-13T06:53:25;15.63;;;5.75;;
33154;SDS011;19511;42.682;23.332;2023-07-13T06:55:54;14.60;;;6.22;;
33154;SDS011;19511;42.682;23.332;2023-07-13T06:58:20;9.55;;;5.22;;
33154;SDS011;19511;42.682;23.332;2023-07-13T07:00:46;12.93;;;5.78;;
33154;SDS011;19511;42.682;23.332;2023-07-13T07:03:15;12.75;;;6.40;;
33154;SDS011;19511;42.682;23.332;2023-07-13T07:05:40;9.82;;;5.70;;
33154;SDS011;19511;42.682;23.332;2023-07-13T07:08:06;15.52;;;5.72;;
33154;SDS011;19511;42.682;23.332;2023-07-13T07:10:34;18.20;;;6.25;;
33154;SDS011;19511;42.682;23.332;2023-07-13T07:13:01;25.02;;;5.88;;
33154;SDS011;19511;42.682;23.332;2023-07-13T07:15:27;10.75;;;6.15;;
33154;SDS011;19511;42.682;23.332;2023-07-13T07:17:53;10.88;;;5.22;;
33154;SDS011;19511;42.682;23.332;2023-07-13T07:20:18;14.68;;;5.40;;
33154;SDS011;19511;42.682;23.332;2023-07-13T07:22:45;12.30;;;6.10;;
33154;SDS011;19511;42.682;23.332;2023-07-13T07:25:11;10.85;;;6.00;;
33154;SDS011;19511;42.682;23.332;2023-07-13T07:27:37;12.70;;;5.28;;
33154;SDS011;19511;42.682;23.332;2023-07-13T07:30:06;9.65;;;5.20;;
33154;SDS011;19511;42.682;23.332;2023-07-13T07:32:33;13.27;;;5.85;;
33154;SDS011;19511;42.682;23.332;2023-07-13T07:35:03;16.33;;;5.13;;
33154;SDS011;19511;42.682;23.332;2023-07-13T07:37:29;16.50;;;5.78;;
33154;SDS011;19511;42.682;23.332;2023-07-13T07:39:58;11.23;;;5.43;;
33154;SDS011;19511;42.682;23.332;2023-07-13T07:42:24;19.05;;;5.70;;
33154;SDS011;19511;42.682;23.332;2023-07-13T07:44:50;17.42;;;5.53;;
33154;SDS011;19511;42.682;23.332;2023-07-13T07:47:15;10.38;;;4.53;;
33154;SDS011;19511;42.682;23.332;2023-07-13T07:49:44;11.50;;;4.93;;
33154;SDS011;19511;42.682;23.332;2023-07-13T07:52:10;12.98;;;5.53;;
33154;SDS011;19511;42.682;23.332;2023-07-13T07:54:39;10.32;;;5.20;;
33154;SDS011;19511;42.682;23.332;2023-07-13T07:57:04;13.23;;;5.55;;
33154;SDS011;19511;42.682;23.332;2023-07-13T07:59:41;11.27;;;5.03;;
33154;SDS011;19511;42.682;23.332;2023-07-13T08:02:17;14.77;;;5.15;;
33154;SDS011;19511;42.682;23.332;2023-07-13T08:04:44;10.98;;;4.68;;
33154;SDS011;19511;42.682;23.332;2023-07-13T08:07:13;12.27;;;4.93;;
33154;SDS011;19511;42.682;23.332;2023-07-13T08:09:50;17.48;;;4.53;;
33154;SDS011;19511;42.682;23.332;2023-07-13T08:12:18;8.82;;;4.75;;
33154;SDS011;19511;42.682;23.332;2023-07-13T08:14:50;11.30;;;4.45;;
33154;SDS011;19511;42.682;23.332;2023-07-13T08:17:22;14.95;;;5.00;;
33154;SDS011;19511;42.682;23.332;2023-07-13T08:19:48;12.75;;;4.60;;
33154;SDS011;19511;42.682;23.332;2023-07-13T08:22:14;9.23;;;5.00;;
33154;SDS011;19511;42.682;23.332;2023-07-13T08:24:40;15.65;;;7.13;;
33154;SDS011;19511;42.682;23.332;2023-07-13T08:27:07;10.27;;;4.75;;
33154;SDS011;19511;42.682;23.332;2023-07-13T08:29:37;25.80;;;5.07;;
33154;SDS011;19511;42.682;23.332;2023-07-13T08:32:06;9.57;;;4.38;;
33154;SDS011;19511;42.682;23.332;2023-07-13T08:34:39;7.88;;;5.00;;
33154;SDS011;19511;42.682;23.332;2023-07-13T08:37:05;14.35;;;5.30;;
33154;SDS011;19511;42.682;23.332;2023-07-13T08:39:31;13.40;;;5.57;;
33154;SDS011;19511;42.682;23.332;2023-07-13T08:42:32;9.45;;;5.70;;
33154;SDS011;19511;42.682;23.332;2023-07-13T08:47:57;10.02;;;4.68;;
33154;SDS011;19511;42.682;23.332;2023-07-13T08:50:32;10.30;;;5.22;;
33154;SDS011;19511;42.682;23.332;2023-07-13T08:53:04;9.48;;;5.55;;
33154;SDS011;19511;42.682;23.332;2023-07-13T08:58:15;11.00;;;5.55;;
33154;SDS011;19511;42.682;23.332;2023-07-13T09:00:49;8.95;;;5.00;;
33154;SDS011;19511;42.682;23.332;2023-07-13T09:03:23;10.05;;;5.05;;
33154;SDS011;19511;42.682;23.332;2023-07-13T09:05:58;11.93;;;5.57;;
33154;SDS011;19511;42.682;23.332;2023-07-13T09:16:23;13.07;;;4.85;;
33154;SDS011;19511;42.682;23.332;2023-07-13T09:18:50;26.60;;;5.72;;
33154;SDS011;19511;42.682;23.332;2023-07-13T09:21:28;22.42;;;5.47;;
33154;SDS011;19511;42.682;23.332;2023-07-13T09:26:56;14.38;;;5.28;;
33154;SDS011;19511;42.682;23.332;2023-07-13T09:29:28;12.30;;;4.63;;
33154;SDS011;19511;42.682;23.332;2023-07-13T09:31:58;18.40;;;4.88;;
33154;SDS011;19511;42.682;23.332;2023-07-13T09:34:37;11.57;;;5.03;;
33154;SDS011;19511;42.682;23.332;2023-07-13T09:37:06;9.90;;;4.70;;
33154;SDS011;19511;42.682;23.332;2023-07-13T09:39:39;24.60;;;5.70;;
33154;SDS011;19511;42.682;23.332;2023-07-13T09:42:17;9.15;;;5.45;;
33154;SDS011;19511;42.682;23.332;2023-07-13T09:47:28;14.70;;;6.03;;
33154;SDS011;19511;42.682;23.332;2023-07-13T09:50:05;10.82;;;5.95;;
33154;SDS011;19511;42.682;23.332;2023-07-13T09:52:44;18.77;;;5.57;;
33154;SDS011;19511;42.682;23.332;2023-07-13T09:58:02;9.07;;;5.32;;
33154;SDS011;19511;42.682;23.332;2023-07-13T10:01:01;12.20;;;5.03;;
33154;SDS011;19511;42.682;23.332;2023-07-13T10:06:03;7.63;;;4.90;;
33154;SDS011;19511;42.682;23.332;2023-07-13T10:08:52;11.25;;;5.00;;
33154;SDS011;19511;42.682;23.332;2023-07-13T10:11:28;9.50;;;5.00;;
33154;SDS011;19511;42.682;23.332;2023-07-13T10:16:33;10.27;;;5.07;;
33154;SDS011;19511;42.682;23.332;2023-07-13T10:19:04;7.43;;;4.47;;
33154;SDS011;19511;42.682;23.332;2023-07-13T10:22:37;14.35;;;5.05;;
33154;SDS011;19511;42.682;23.332;2023-07-13T10:24:47;8.30;;;4.57;;
33154;SDS011;19511;42.682;23.332;2023-07-13T10:27:17;8.32;;;4.35;;
33154;SDS011;19511;42.682;23.332;2023-07-13T10:30:19;12.88;;;4.10;;
33154;SDS011;19511;42.682;23.332;2023-07-13T10:32:50;7.70;;;3.97;;
33154;SDS011;19511;42.682;23.332;2023-07-13T10:35:20;8.80;;;3.58;;
33154;SDS011;19511;42.682;23.332;2023-07-13T10:38:05;17.60;;;4.05;;
33154;SDS011;19511;42.682;23.332;2023-07-13T10:40:48;6.93;;;2.97;;
33154;SDS011;19511;42.682;23.332;2023-07-13T10:43:27;6.65;;;3.15;;
33154;SDS011;19511;42.682;23.332;2023-07-13T10:45:57;9.98;;;2.80;;
33154;SDS011;19511;42.682;23.332;2023-07-13T10:48:25;5.13;;;2.63;;
33154;SDS011;19511;42.682;23.332;2023-07-13T10:51:02;6.35;;;3.25;;
33154;SDS011;19511;42.682;23.332;2023-07-13T10:53:32;13.27;;;3.00;;
33154;SDS011;19511;42.682;23.332;2023-07-13T10:58:41;13.32;;;3.25;;
33154;SDS011;19511;42.682;23.332;2023-07-13T11:03:50;5.40;;;2.80;;
33154;SDS011;19511;42.682;23.332;2023-07-13T11:08:57;7.63;;;3.28;;
33154;SDS011;19511;42.682;23.332;2023-07-13T11:11:41;6.07;;;3.10;;
33154;SDS011;19511;42.682;23.332;2023-07-13T11:14:26;10.75;;;3.17;;
33154;SDS011;19511;42.682;23.332;2023-07-13T11:17:46;5.53;;;3.03;;
33154;SDS011;19511;42.682;23.332;2023-07-13T11:20:41;10.00;;;2.95;;
33154;SDS011;19511;42.682;23.332;2023-07-13T11:22:49;7.40;;;2.88;;
33154;SDS011;19511;42.682;23.332;2023-07-13T11:25:32;8.50;;;2.60;;
33154;SDS011;19511;42.682;23.332;2023-07-13T11:35:53;5.97;;;2.85;;
33154;SDS011;19511;42.682;23.332;2023-07-13T11:38:36;7.38;;;3.63;;
33154;SDS011;19511;42.682;23.332;2023-07-13T11:41:04;9.77;;;3.67;;
33154;SDS011;19511;42.682;23.332;2023-07-13T11:43:40;7.60;;;2.95;;
33154;SDS011;19511;42.682;23.332;2023-07-13T11:46:15;22.25;;;3.40;;
33154;SDS011;19511;42.682;23.332;2023-07-13T11:48:48;10.27;;;3.53;;
33154;SDS011;19511;42.682;23.332;2023-07-13T11:51:27;11.90;;;4.18;;
33154;SDS011;19511;42.682;23.332;2023-07-13T11:54:00;7.22;;;3.35;;
33154;SDS011;19511;42.682;23.332;2023-07-13T11:56:32;12.60;;;3.75;;
33154;SDS011;19511;42.682;23.332;2023-07-13T11:59:02;6.60;;;3.65;;
33154;SDS011;19511;42.682;23.332;2023-07-13T12:01:32;4.78;;;2.85;;
33154;SDS011;19511;42.682;23.332;2023-07-13T12:04:02;7.55;;;3.13;;
33154;SDS011;19511;42.682;23.332;2023-07-13T12:06:34;7.22;;;3.08;;
33154;SDS011;19511;42.682;23.332;2023-07-13T12:09:11;7.18;;;3.13;;
33154;SDS011;19511;42.682;23.332;2023-07-13T12:11:40;7.25;;;3.00;;
33154;SDS011;19511;42.682;23.332;2023-07-13T12:14:15;5.80;;;2.92;;
33154;SDS011;19511;42.682;23.332;2023-07-13T12:16:46;4.90;;;3.22;;
33154;SDS011;19511;42.682;23.332;2023-07-13T12:19:22;11.38;;;3.60;;
33154;SDS011;19511;42.682;23.332;2023-07-13T12:21:53;4.60;;;2.55;;
33154;SDS011;19511;42.682;23.332;2023-07-13T12:24:21;5.35;;;2.88;;
33154;SDS011;19511;42.682;23.332;2023-07-13T12:26:51;8.05;;;2.97;;
33154;SDS011;19511;42.682;23.332;2023-07-13T12:29:17;6.15;;;2.75;;
33154;SDS011;19511;42.682;23.332;2023-07-13T12:31:44;6.45;;;2.75;;
33154;SDS011;19511;42.682;23.332;2023-07-13T12:34:15;8.60;;;3.10;;
33154;SDS011;19511;42.682;23.332;2023-07-13T12:39:19;4.32;;;2.35;;
33154;SDS011;19511;42.682;23.332;2023-07-13T12:45:03;7.00;;;3.28;;
33154;SDS011;19511;42.682;23.332;2023-07-13T12:47:43;9.77;;;2.53;;
33154;SDS011;19511;42.682;23.332;2023-07-13T12:50:16;7.00;;;2.90;;
33154;SDS011;19511;42.682;23.332;2023-07-13T12:52:51;8.50;;;3.10;;
33154;SDS011;19511;42.682;23.332;2023-07-13T12:55:24;7.25;;;3.05;;
33154;SDS011;19511;42.682;23.332;2023-07-13T12:57:57;6.65;;;2.50;;
33154;SDS011;19511;42.682;23.332;2023-07-13T13:02:51;8.93;;;3.20;;
33154;SDS011;19511;42.682;23.332;2023-07-13T13:05:19;5.38;;;2.97;;
33154;SDS011;19511;42.682;23.332;2023-07-13T13:07:47;8.63;;;2.75;;
33154;SDS011;19511;42.682;23.332;2023-07-13T13:10:18;9.40;;;2.80;;
33154;SDS011;19511;42.682;23.332;2023-07-13T13:12:43;7.15;;;2.88;;
33154;SDS011;19511;42.682;23.332;2023-07-13T13:15:09;9.02;;;2.50;;
33154;SDS011;19511;42.682;23.332;2023-07-13T13:17:38;10.15;;;3.17;;
33154;SDS011;19511;42.682;23.332;2023-07-13T13:20:14;11.52;;;2.92;;
33154;SDS011;19511;42.682;23.332;2023-07-13T13:25:12;5.88;;;2.40;;
33154;SDS011;19511;42.682;23.332;2023-07-13T13:27:41;5.70;;;2.60;;
33154;SDS011;19511;42.682;23.332;2023-07-13T13:30:11;17.95;;;2.72;;
33154;SDS011;19511;42.682;23.332;2023-07-13T13:32:39;7.57;;;3.10;;
33154;SDS011;19511;42.682;23.332;2023-07-13T13:35:07;11.02;;;2.92;;
33154;SDS011;19511;42.682;23.332;2023-07-13T13:37:42;6.75;;;2.58;;
33154;SDS011;19511;42.682;23.332;2023-07-13T13:40:21;8.93;;;3.10;;
33154;SDS011;19511;42.682;23.332;2023-07-13T13:42:48;9.68;;;2.63;;
33154;SDS011;19511;42.682;23.332;2023-07-13T13:45:14;7.72;;;3.03;;
33154;SDS011;19511;42.682;23.332;2023-07-13T13:47:42;11.70;;;2.90;;
33154;SDS011;19511;42.682;23.332;2023-07-13T13:50:11;7.93;;;2.35;;
33154;SDS011;19511;42.682;23.332;2023-07-13T13:52:41;9.65;;;2.80;;
33154;SDS011;19511;42.682;23.332;2023-07-13T13:55:40;15.75;;;2.40;;
33154;SDS011;19511;42.682;23.332;2023-07-13T13:57:58;3.72;;;2.42;;
33154;SDS011;19511;42.682;23.332;2023-07-13T14:00:31;9.55;;;2.88;;
33154;SDS011;19511;42.682;23.332;2023-07-13T14:02:56;15.68;;;2.60;;
33154;SDS011;19511;42.682;23.332;2023-07-13T14:05:25;3.88;;;2.55;;
33154;SDS011;19511;42.682;23.332;2023-07-13T14:07:51;5.55;;;2.38;;
33154;SDS011;19511;42.682;23.332;2023-07-13T14:10:21;11.75;;;2.35;;
33154;SDS011;19511;42.682;23.332;2023-07-13T14:12:56;7.60;;;2.83;;
33154;SDS011;19511;42.682;23.332;2023-07-13T14:15:27;7.80;;;2.83;;
33154;SDS011;19511;42.682;23.332;2023-07-13T14:17:59;8.95;;;2.72;;
33154;SDS011;19511;42.682;23.332;2023-07-13T14:20:27;12.30;;;3.22;;
33154;SDS011;19511;42.682;23.332;2023-07-13T14:22:56;7.13;;;2.65;;
33154;SDS011;19511;42.682;23.332;2023-07-13T14:25:25;7.38;;;2.83;;
33154;SDS011;19511;42.682;23.332;2023-07-13T14:27:57;8.05;;;2.85;;
33154;SDS011;19511;42.682;23.332;2023-07-13T14:30:25;7.82;;;3.55;;
33154;SDS011;19511;42.682;23.332;2023-07-13T14:32:54;7.13;;;2.67;;
33154;SDS011;19511;42.682;23.332;2023-07-13T14:35:21;5.78;;;2.78;;
33154;SDS011;19511;42.682;23.332;2023-07-13T14:37:48;7.57;;;2.53;;
33154;SDS011;19511;42.682;23.332;2023-07-13T14:40:16;4.55;;;2.35;;
33154;SDS011;19511;42.682;23.332;2023-07-13T14:42:44;9.57;;;2.50;;
33154;SDS011;19511;42.682;23.332;2023-07-13T14:45:13;6.20;;;2.42;;
33154;SDS011;19511;42.682;23.332;2023-07-13T14:50:23;7.78;;;3.55;;
33154;SDS011;19511;42.682;23.332;2023-07-13T14:52:54;8.27;;;2.88;;
33154;SDS011;19511;42.682;23.332;2023-07-13T14:55:19;12.70;;;3.13;;
33154;SDS011;19511;42.682;23.332;2023-07-13T14:57:45;7.20;;;2.65;;
33154;SDS011;19511;42.682;23.332;2023-07-13T15:00:18;8.52;;;2.65;;
33154;SDS011;19511;42.682;23.332;2023-07-13T15:02:48;6.45;;;2.38;;
33154;SDS011;19511;42.682;23.332;2023-07-13T15:05:29;6.00;;;2.78;;
33154;SDS011;19511;42.682;23.332;2023-07-13T15:07:57;10.05;;;2.97;;
33154;SDS011;19511;42.682;23.332;2023-07-13T15:10:34;9.50;;;2.75;;
33154;SDS011;19511;42.682;23.332;2023-07-13T15:13:16;14.27;;;3.70;;
33154;SDS011;19511;42.682;23.332;2023-07-13T15:15:46;5.75;;;3.05;;
33154;SDS011;19511;42.682;23.332;2023-07-13T15:18:14;10.20;;;2.70;;
33154;SDS011;19511;42.682;23.332;2023-07-13T15:20:42;7.57;;;3.60;;
33154;SDS011;19511;42.682;23.332;2023-07-13T15:23:10;6.70;;;3.15;;
33154;SDS011;19511;42.682;23.332;2023-07-13T15:25:36;12.05;;;3.25;;
33154;SDS011;19511;42.682;23.332;2023-07-13T15:28:01;10.07;;;2.53;;
33154;SDS011;19511;42.682;23.332;2023-07-13T15:30:29;7.03;;;2.60;;
33154;SDS011;19511;42.682;23.332;2023-07-13T15:32:57;13.50;;;2.88;;
33154;SDS011;19511;42.682;23.332;2023-07-13T15:35:27;8.40;;;3.13;;
33154;SDS011;19511;42.682;23.332;2023-07-13T15:37:53;6.90;;;2.95;;
33154;SDS011;19511;42.682;23.332;2023-07-13T15:40:19;5.88;;;2.75;;
33154;SDS011;19511;42.682;23.332;2023-07-13T15:42:48;7.97;;;2.40;;
33154;SDS011;19511;42.682;23.332;2023-07-13T15:45:18;7.45;;;2.75;;
33154;SDS011;19511;42.682;23.332;2023-07-13T15:47:48;6.97;;;3.47;;
33154;SDS011;19511;42.682;23.332;2023-07-13T15:50:22;9.80;;;3.17;;
33154;SDS011;19511;42.682;23.332;2023-07-13T15:52:52;15.48;;;2.90;;